Time;durP1;ratioP1;P1;durP2;ratioP2;P2;SDS_P1;SDS_P2;PMS_P1;PMS_P2;Temp;Humidity;BMP_temperature;BMP_pressure;BME280_temperature;BME280_humidity;BME280_pressure;Samples;Min_cycle;Max_cycle;Signal;HPM_P1;HPM_P2
2023/09/27 00:01:59;;;;;;;17.05;9.20;;;16.40;99.90;;;;;;4232266;28;20105;-81
2023/09/27 00:03:59;;;;;;;14.63;8.75;;;16.40;99.90;;;;;;4214761;28;20490;-81
2023/09/27 00:06:00;;;;;;;13.38;8.70;;;16.30;99.90;;;;;;4234126;28;20466;-81
2023/09/27 00:08:01;;;;;;;13.52;8.82;;;16.30;99.90;;;;;;4234134;28;20048;-82
2023/09/27 00:10:03;;;;;;;13.63;8.68;;;16.30;99.90;;;;;;4247380;28;20040;-81
2023/09/27 00:12:05;;;;;;;14.77;8.60;;;15.30;99.90;;;;;;4205457;28;20436;-81
2023/09/27 00:14:06;;;;;;;17.38;8.68;;;16.30;99.90;;;;;;4233736;28;20417;-81
2023/09/27 00:16:07;;;;;;;15.48;9.20;;;16.30;99.90;;;;;;4215066;28;20048;-82
2023/09/27 00:18:09;;;;;;;14.68;8.00;;;16.30;99.90;;;;;;4233198;28;20395;-81
2023/09/27 00:20:13;;;;;;;13.90;8.43;;;16.30;99.90;;;;;;4231904;28;20050;-82
2023/09/27 00:22:15;;;;;;;14.57;8.65;;;16.30;99.90;;;;;;4233613;28;20513;-82
2023/09/27 00:24:16;;;;;;;14.98;8.95;;;16.40;99.90;;;;;;4213239;28;20760;-82
2023/09/27 00:26:16;;;;;;;12.60;8.80;;;16.40;99.90;;;;;;4232075;28;20058;-82
2023/09/27 00:28:17;;;;;;;12.38;8.52;;;16.40;99.90;;;;;;4214759;28;20039;-81
2023/09/27 00:30:18;;;;;;;15.13;8.90;;;16.40;99.90;;;;;;4232470;28;20112;-81
2023/09/27 00:32:19;;;;;;;16.13;8.95;;;16.50;99.90;;;;;;4233222;28;20042;-81
2023/09/27 00:34:19;;;;;;;14.27;8.20;;;16.50;99.90;;;;;;4231853;28;20056;-81
2023/09/27 00:36:20;;;;;;;16.05;8.35;;;16.60;99.90;;;;;;4233220;28;20044;-81
2023/09/27 00:38:21;;;;;;;13.07;7.75;;;16.50;99.90;;;;;;4214739;28;20040;-80
2023/09/27 00:40:24;;;;;;;12.60;8.30;;;16.50;99.90;;;;;;4232943;28;20518;-81
2023/09/27 00:42:25;;;;;;;12.57;8.48;;;16.50;99.90;;;;;;4230047;28;20051;-81
2023/09/27 00:44:26;;;;;;;16.45;8.73;;;16.40;99.90;;;;;;4233410;28;20039;-80
2023/09/27 00:46:27;;;;;;;13.10;8.20;;;16.40;99.90;;;;;;4233461;28;20051;-81
2023/09/27 00:48:29;;;;;;;12.25;8.18;;;16.40;99.90;;;;;;4215155;28;20071;-80
2023/09/27 00:50:30;;;;;;;14.95;7.97;;;16.40;99.90;;;;;;4215344;28;20071;-80
2023/09/27 00:52:32;;;;;;;13.65;8.45;;;16.50;99.90;;;;;;4215575;28;20109;-80
2023/09/27 00:54:34;;;;;;;13.88;8.43;;;16.40;99.90;;;;;;4217002;28;20448;-80
2023/09/27 00:56:36;;;;;;;13.05;8.85;;;16.40;99.90;;;;;;4217954;28;20123;-81
2023/09/27 00:58:37;;;;;;;14.80;8.77;;;16.40;99.90;;;;;;4216806;28;20099;-81
2023/09/27 01:00:39;;;;;;;13.80;8.68;;;16.30;99.90;;;;;;4208716;28;20096;-81
2023/09/27 01:02:40;;;;;;;13.95;9.10;;;16.30;99.90;;;;;;4203944;28;20049;-81
2023/09/27 01:04:41;;;;;;;11.30;8.10;;;16.30;99.90;;;;;;4201748;28;20041;-81
2023/09/27 01:06:43;;;;;;;13.07;8.25;;;16.30;99.90;;;;;;4201290;28;20043;-81
2023/09/27 01:08:45;;;;;;;12.00;8.70;;;16.30;99.90;;;;;;4200891;28;20075;-80
2023/09/27 01:10:46;;;;;;;12.82;7.95;;;16.30;99.90;;;;;;4203969;28;20048;-80
2023/09/27 01:12:47;;;;;;;14.43;9.15;;;16.30;99.90;;;;;;4210968;28;20048;-81
2023/09/27 01:14:49;;;;;;;11.75;8.10;;;16.30;99.90;;;;;;4202350;28;20074;-81
2023/09/27 01:16:50;;;;;;;16.60;9.13;;;16.30;99.90;;;;;;4209407;28;20094;-81
2023/09/27 01:18:50;;;;;;;13.38;8.75;;;16.30;99.90;;;;;;4214035;28;20578;-81
2023/09/27 01:20:52;;;;;;;14.35;9.13;;;16.20;99.90;;;;;;4200734;28;20048;-81
2023/09/27 01:23:05;;;;;;;13.48;8.88;;;16.30;99.90;;;;;;4215227;28;20043;-81
2023/09/27 01:25:11;;;;;;;14.82;9.50;;;16.30;99.90;;;;;;4214077;28;20031;-81
2023/09/27 01:27:13;;;;;;;17.15;9.07;;;16.30;99.90;;;;;;4213666;28;20377;-81
2023/09/27 01:29:14;;;;;;;15.18;9.05;;;16.20;99.90;;;;;;4215263;28;20127;-81
2023/09/27 01:31:15;;;;;;;15.15;9.13;;;16.20;99.90;;;;;;4214547;28;20040;-81
2023/09/27 01:33:16;;;;;;;12.10;8.20;;;16.20;99.90;;;;;;4215208;28;20055;-81
2023/09/27 01:35:17;;;;;;;14.68;8.88;;;16.20;99.90;;;;;;4214926;28;20484;-81
2023/09/27 01:37:17;;;;;;;13.18;8.20;;;16.10;99.90;;;;;;4211316;28;20146;-82
2023/09/27 01:39:19;;;;;;;15.00;8.93;;;16.10;99.90;;;;;;4198510;28;20086;-81
2023/09/27 01:41:19;;;;;;;14.27;8.82;;;16.10;99.90;;;;;;4198365;28;20409;-81
2023/09/27 01:43:20;;;;;;;13.90;8.93;;;16.10;99.90;;;;;;4197519;28;20138;-81
2023/09/27 01:45:21;;;;;;;13.07;8.68;;;16.10;99.90;;;;;;4206323;28;20373;-81
2023/09/27 01:47:22;;;;;;;12.75;8.48;;;16.00;99.90;;;;;;4215100;28;20040;-81
2023/09/27 01:49:23;;;;;;;14.13;8.27;;;16.10;99.90;;;;;;4214553;28;20039;-81
2023/09/27 01:51:24;;;;;;;13.93;9.30;;;16.00;99.90;;;;;;4229820;28;20453;-81
2023/09/27 01:53:25;;;;;;;12.68;7.85;;;16.10;99.90;;;;;;4231837;28;20035;-81
2023/09/27 01:55:26;;;;;;;14.63;9.40;;;16.00;99.90;;;;;;4231786;28;20067;-81
2023/09/27 01:57:27;;;;;;;13.13;8.13;;;16.00;99.90;;;;;;4231829;28;20043;-81
2023/09/27 01:59:28;;;;;;;14.18;9.23;;;16.00;99.90;;;;;;4213676;28;20089;-81
2023/09/27 02:01:29;;;;;;;13.05;8.65;;;16.00;99.90;;;;;;4213591;28;20056;-81
2023/09/27 02:03:30;;;;;;;15.98;8.35;;;16.00;99.90;;;;;;4212692;28;20043;-81
2023/09/27 02:05:31;;;;;;;12.98;8.52;;;16.00;99.90;;;;;;4231713;28;20036;-81
2023/09/27 02:07:32;;;;;;;16.52;8.98;;;15.90;99.90;;;;;;4231667;28;20357;-81
2023/09/27 02:09:32;;;;;;;15.52;8.38;;;15.90;99.90;;;;;;4231544;28;20049;-81
2023/09/27 02:11:33;;;;;;;14.65;8.70;;;15.90;99.90;;;;;;4231326;28;20055;-81
2023/09/27 02:13:34;;;;;;;14.38;8.40;;;15.90;99.90;;;;;;4229089;28;20407;-81
2023/09/27 02:15:35;;;;;;;15.30;9.85;;;15.80;99.90;;;;;;4196368;28;20036;-83
2023/09/27 02:17:37;;;;;;;15.63;9.48;;;16.60;99.90;;;;;;4214404;28;20044;-82
2023/09/27 02:19:38;;;;;;;16.60;9.32;;;15.80;99.90;;;;;;4219223;28;20036;-81
2023/09/27 02:21:39;;;;;;;14.30;9.43;;;15.80;99.90;;;;;;4230713;28;20051;-82
2023/09/27 02:23:40;;;;;;;19.35;10.00;;;15.80;99.90;;;;;;4230983;28;20043;-82
2023/09/27 02:25:41;;;;;;;16.02;9.18;;;15.70;99.90;;;;;;4231415;28;20536;-81
2023/09/27 02:27:42;;;;;;;15.85;9.80;;;15.70;99.90;;;;;;4231373;28;20035;-82
2023/09/27 02:29:43;;;;;;;16.95;9.73;;;15.70;99.90;;;;;;4231310;28;20079;-82
2023/09/27 02:31:44;;;;;;;15.15;9.90;;;15.70;99.90;;;;;;4231287;28;20048;-81
2023/09/27 02:33:45;;;;;;;15.77;9.57;;;15.70;99.90;;;;;;4212789;28;20052;-82
2023/09/27 02:35:45;;;;;;;19.33;10.43;;;15.60;99.90;;;;;;4231423;28;20061;-81
2023/09/27 02:37:46;;;;;;;15.65;9.02;;;15.60;99.90;;;;;;4230410;28;20036;-81
2023/09/27 02:39:47;;;;;;;15.32;9.90;;;15.60;99.90;;;;;;4230664;28;20044;-81
2023/09/27 02:41:48;;;;;;;17.17;9.73;;;15.50;99.90;;;;;;4213184;28;20151;-81
2023/09/27 02:43:49;;;;;;;14.40;9.57;;;15.50;99.90;;;;;;4231169;28;20442;-80
2023/09/27 02:45:50;;;;;;;17.02;10.48;;;15.50;99.90;;;;;;4230779;28;20040;-82
2023/09/27 02:47:50;;;;;;;14.63;10.32;;;15.60;99.90;;;;;;4231193;28;20114;-81
2023/09/27 02:49:51;;;;;;;13.98;10.05;;;15.50;99.90;;;;;;4230655;28;20040;-82
2023/09/27 02:51:53;;;;;;;15.40;10.43;;;15.50;99.90;;;;;;4231086;28;20043;-81
2023/09/27 02:53:53;;;;;;;15.20;9.65;;;15.50;99.90;;;;;;4228717;28;20114;-81
2023/09/27 02:55:55;;;;;;;20.88;10.43;;;15.40;99.90;;;;;;4230936;28;20043;-81
2023/09/27 02:57:56;;;;;;;17.25;10.20;;;14.90;99.90;;;;;;4231036;28;20425;-81
2023/09/27 02:59:57;;;;;;;15.13;9.90;;;15.40;99.90;;;;;;4230700;28;20043;-81
2023/09/27 03:01:58;;;;;;;18.10;10.30;;;15.40;99.90;;;;;;4231050;28;20395;-80
2023/09/27 03:03:59;;;;;;;16.65;10.95;;;15.40;99.90;;;;;;4230750;28;20044;-81
2023/09/27 03:06:00;;;;;;;18.10;10.57;;;15.40;99.90;;;;;;4230576;28;20091;-81
2023/09/27 03:08:01;;;;;;;15.68;10.77;;;15.40;99.90;;;;;;4212602;28;20485;-81
2023/09/27 03:10:10;;;;;;;13.45;9.90;;;15.30;99.90;;;;;;4230679;28;20514;-81
2023/09/27 03:12:11;;;;;;;16.95;10.95;;;15.30;99.90;;;;;;4229392;28;20043;-81
2023/09/27 03:14:12;;;;;;;15.27;10.20;;;15.30;99.90;;;;;;4223547;28;20507;-81
2023/09/27 03:16:13;;;;;;;16.23;11.25;;;15.10;99.90;;;;;;4214077;28;20048;-81
2023/09/27 03:18:15;;;;;;;18.30;10.63;;;15.40;99.90;;;;;;4213784;28;20090;-81
2023/09/27 03:20:16;;;;;;;20.98;10.57;;;14.50;99.90;;;;;;4213322;28;20127;-81
2023/09/27 03:22:17;;;;;;;17.10;10.70;;;15.30;99.90;;;;;;4213727;28;20408;-81
2023/09/27 03:24:18;;;;;;;19.15;9.93;;;15.30;99.90;;;;;;4214075;28;20040;-82
2023/09/27 03:26:20;;;;;;;15.88;11.15;;;15.20;99.90;;;;;;4213814;28;20040;-82
2023/09/27 03:28:21;;;;;;;15.50;10.05;;;15.20;99.90;;;;;;4213932;28;20408;-82
2023/09/27 03:30:21;;;;;;;20.15;11.75;;;15.20;99.90;;;;;;4222151;28;20031;-82
2023/09/27 03:32:22;;;;;;;19.58;10.75;;;15.20;99.90;;;;;;4230241;28;20507;-82
2023/09/27 03:34:23;;;;;;;16.52;11.50;;;15.20;99.90;;;;;;4214324;28;20062;-82
2023/09/27 03:36:24;;;;;;;16.90;10.60;;;15.20;99.90;;;;;;4217215;28;20093;-82
2023/09/27 03:38:24;;;;;;;19.42;11.13;;;15.10;99.90;;;;;;4217088;28;20104;-82
2023/09/27 03:40:25;;;;;;;18.27;11.55;;;15.10;99.90;;;;;;4216573;28;20166;-82
2023/09/27 03:42:26;;;;;;;18.67;12.45;;;15.10;99.90;;;;;;4217104;28;20044;-82
2023/09/27 03:44:27;;;;;;;17.67;10.95;;;15.10;99.90;;;;;;4198877;28;20523;-80
2023/09/27 03:46:29;;;;;;;15.48;10.98;;;15.10;99.90;;;;;;4201886;28;20102;-80
2023/09/27 03:48:33;;;;;;;16.10;11.65;;;15.20;99.90;;;;;;4232002;28;20040;-80
2023/09/27 03:50:34;;;;;;;17.00;11.48;;;14.90;99.90;;;;;;4232937;28;20066;-80
2023/09/27 03:52:34;;;;;;;18.00;11.55;;;15.00;99.90;;;;;;4215324;28;20044;-80
2023/09/27 03:54:35;;;;;;;20.80;11.05;;;15.00;99.90;;;;;;4215231;28;20036;-80
2023/09/27 03:56:36;;;;;;;20.27;12.65;;;14.90;99.90;;;;;;4233708;28;20048;-80
2023/09/27 03:58:37;;;;;;;16.67;11.48;;;15.00;99.90;;;;;;4233601;28;20042;-80
2023/09/27 04:00:38;;;;;;;18.23;11.60;;;14.90;99.90;;;;;;4233533;28;20078;-80
2023/09/27 04:02:38;;;;;;;17.90;11.00;;;14.90;99.90;;;;;;4215259;28;20127;-80
2023/09/27 04:04:39;;;;;;;16.73;11.10;;;14.90;99.90;;;;;;4230737;28;20460;-80
2023/09/27 04:06:40;;;;;;;20.30;11.20;;;14.90;99.90;;;;;;4233354;28;20078;-80
2023/09/27 04:08:42;;;;;;;19.23;12.07;;;14.90;99.90;;;;;;4233452;28;20159;-80
2023/09/27 04:10:43;;;;;;;19.98;12.48;;;14.80;99.90;;;;;;4233514;28;20051;-80
2023/09/27 04:12:44;;;;;;;17.58;11.65;;;15.00;99.90;;;;;;4233445;28;20369;-80
2023/09/27 04:14:44;;;;;;;19.35;11.90;;;14.90;99.90;;;;;;4232822;28;20049;-80
2023/09/27 04:16:45;;;;;;;19.33;12.07;;;16.00;99.90;;;;;;4233596;28;20391;-80
2023/09/27 04:18:46;;;;;;;17.15;11.25;;;14.90;99.90;;;;;;4233384;28;20119;-80
2023/09/27 04:20:47;;;;;;;31.58;12.60;;;14.80;99.90;;;;;;4233228;28;20491;-80
2023/09/27 04:22:49;;;;;;;24.42;11.88;;;14.80;99.90;;;;;;4231355;28;20484;-81
2023/09/27 04:24:50;;;;;;;17.23;11.38;;;14.80;99.90;;;;;;4214952;28;20058;-80
2023/09/27 04:26:50;;;;;;;16.80;11.35;;;14.80;99.90;;;;;;4232762;28;20503;-80
2023/09/27 04:28:52;;;;;;;20.10;12.32;;;14.80;99.90;;;;;;4233212;28;20480;-80
2023/09/27 04:30:54;;;;;;;20.38;12.30;;;14.80;99.90;;;;;;4214501;28;20047;-80
2023/09/27 04:32:54;;;;;;;21.25;13.30;;;14.70;99.90;;;;;;4233141;28;20488;-80
2023/09/27 04:34:55;;;;;;;19.15;12.05;;;14.70;99.90;;;;;;4233633;28;20044;-82
2023/09/27 04:36:56;;;;;;;19.83;12.20;;;13.90;99.90;;;;;;4233051;28;20112;-81
2023/09/27 04:38:57;;;;;;;19.77;11.75;;;14.70;99.90;;;;;;4230623;28;20114;-81
2023/09/27 04:40:57;;;;;;;20.00;12.57;;;14.70;99.90;;;;;;4232581;28;20082;-81
2023/09/27 04:42:58;;;;;;;17.83;11.73;;;14.70;99.90;;;;;;4232989;28;20438;-81
2023/09/27 04:44:59;;;;;;;20.15;13.00;;;14.70;99.90;;;;;;4232764;28;20096;-81
2023/09/27 04:47:00;;;;;;;20.23;12.48;;;14.60;99.90;;;;;;4214297;28;20055;-81
2023/09/27 04:49:02;;;;;;;20.00;12.18;;;14.60;99.90;;;;;;4232911;28;20540;-81
2023/09/27 04:51:03;;;;;;;16.27;11.35;;;14.60;99.90;;;;;;4232663;28;20089;-80
2023/09/27 04:53:04;;;;;;;20.98;13.02;;;14.60;99.90;;;;;;4232373;28;20392;-80
2023/09/27 04:55:05;;;;;;;18.95;12.88;;;14.60;99.90;;;;;;4232770;28;20038;-80
2023/09/27 04:57:07;;;;;;;19.40;12.60;;;14.70;99.90;;;;;;4209840;28;20120;-81
2023/09/27 04:59:08;;;;;;;21.13;13.15;;;14.50;99.90;;;;;;4232583;28;20042;-81
2023/09/27 05:01:10;;;;;;;24.40;14.00;;;14.50;99.90;;;;;;4213661;28;20055;-80
2023/09/27 05:03:11;;;;;;;23.77;13.05;;;14.50;99.90;;;;;;4232162;28;20040;-80
2023/09/27 05:05:12;;;;;;;19.25;12.40;;;14.50;99.90;;;;;;4232568;28;20049;-81
2023/09/27 05:07:16;;;;;;;22.85;13.55;;;14.50;99.90;;;;;;4232327;28;20052;-80
2023/09/27 05:09:18;;;;;;;21.85;13.98;;;14.50;99.90;;;;;;4232520;28;20051;-80
2023/09/27 05:11:18;;;;;;;23.10;14.65;;;14.50;99.90;;;;;;4232396;28;20044;-81
2023/09/27 05:13:21;;;;;;;22.45;13.68;;;14.40;99.90;;;;;;4232356;28;20036;-81
2023/09/27 05:15:22;;;;;;;20.92;13.07;;;14.40;99.90;;;;;;4213863;28;20077;-81
2023/09/27 05:17:24;;;;;;;23.35;13.68;;;14.40;99.90;;;;;;4230321;28;20495;-81
2023/09/27 05:19:24;;;;;;;19.35;12.95;;;14.40;99.90;;;;;;4214477;28;20044;-81
2023/09/27 05:21:25;;;;;;;25.65;13.85;;;14.50;99.90;;;;;;4231358;28;20043;-81
2023/09/27 05:23:26;;;;;;;22.45;13.70;;;14.40;99.90;;;;;;4232091;28;20040;-81
2023/09/27 05:25:27;;;;;;;23.30;14.68;;;14.40;99.90;;;;;;4231988;28;20050;-81
2023/09/27 05:27:28;;;;;;;22.67;14.15;;;14.50;99.90;;;;;;4214171;28;20040;-81
2023/09/27 05:29:29;;;;;;;25.23;14.63;;;14.50;99.90;;;;;;4232290;28;20072;-81
2023/09/27 05:31:29;;;;;;;22.92;14.32;;;14.50;99.90;;;;;;4232200;28;20040;-81
2023/09/27 05:33:30;;;;;;;22.05;14.60;;;14.50;99.90;;;;;;4223020;28;20067;-81
2023/09/27 05:35:31;;;;;;;24.52;14.98;;;14.50;99.90;;;;;;4228311;28;20167;-81
2023/09/27 05:37:32;;;;;;;22.85;14.43;;;14.50;99.90;;;;;;4231981;28;20126;-81
2023/09/27 05:39:33;;;;;;;24.33;14.60;;;14.50;99.90;;;;;;4214043;28;20101;-81
2023/09/27 05:41:34;;;;;;;25.23;15.40;;;14.60;99.90;;;;;;4230762;28;20039;-81
2023/09/27 05:43:35;;;;;;;25.27;15.20;;;14.60;99.90;;;;;;4231832;28;20071;-81
2023/09/27 05:45:36;;;;;;;25.33;15.15;;;14.60;99.90;;;;;;4231667;28;20051;-81
2023/09/27 05:47:37;;;;;;;23.55;14.82;;;14.60;99.90;;;;;;4231957;28;20415;-81
2023/09/27 05:49:38;;;;;;;26.02;14.95;;;14.60;99.90;;;;;;4231853;28;20036;-81
2023/09/27 05:51:39;;;;;;;21.67;15.05;;;14.60;99.90;;;;;;4211582;28;20078;-81
2023/09/27 05:53:39;;;;;;;27.55;15.80;;;14.60;99.90;;;;;;4231643;28;20495;-81
2023/09/27 05:55:42;;;;;;;28.50;15.02;;;14.60;99.90;;;;;;4231796;28;20040;-81
2023/09/27 05:57:43;;;;;;;25.80;15.98;;;14.60;99.90;;;;;;4230611;28;20043;-81
2023/09/27 05:59:45;;;;;;;25.95;15.75;;;14.60;99.90;;;;;;4231383;28;20497;-81
2023/09/27 06:01:47;;;;;;;24.73;15.30;;;14.60;99.90;;;;;;4231357;28;20040;-81
2023/09/27 06:03:48;;;;;;;26.38;16.00;;;14.60;99.90;;;;;;4231539;28;20136;-80
2023/09/27 06:05:48;;;;;;;24.35;15.02;;;14.60;99.90;;;;;;4214133;28;20048;-81
2023/09/27 06:07:49;;;;;;;23.50;15.43;;;14.60;99.90;;;;;;4231754;28;20036;-81
2023/09/27 06:09:50;;;;;;;25.05;16.30;;;14.60;99.90;;;;;;4211093;28;20128;-80
2023/09/27 06:11:51;;;;;;;30.05;15.75;;;14.60;99.90;;;;;;4231297;28;20044;-80
2023/09/27 06:13:52;;;;;;;26.80;16.17;;;14.60;99.90;;;;;;4231263;28;20503;-80
2023/09/27 06:15:54;;;;;;;25.05;14.57;;;14.70;99.90;;;;;;4213560;28;20083;-81
2023/09/27 06:17:55;;;;;;;22.33;14.85;;;14.70;99.90;;;;;;4231872;28;20035;-81
2023/09/27 06:19:56;;;;;;;24.50;14.27;;;14.70;99.90;;;;;;4231057;28;20040;-79
2023/09/27 06:21:58;;;;;;;25.42;15.75;;;14.70;99.90;;;;;;4222770;28;20042;-80
2023/09/27 06:23:59;;;;;;;27.15;15.60;;;14.70;99.90;;;;;;4221029;28;20048;-79
2023/09/27 06:26:02;;;;;;;26.77;15.90;;;14.70;99.90;;;;;;4229720;28;20097;-80
2023/09/27 06:28:03;;;;;;;24.52;15.15;;;14.60;99.90;;;;;;4220917;28;20040;-80
2023/09/27 06:30:04;;;;;;;27.30;15.98;;;14.60;99.90;;;;;;4214355;28;20051;-79
2023/09/27 06:32:05;;;;;;;25.90;16.20;;;14.60;99.90;;;;;;4214104;28;20052;-80
2023/09/27 06:34:06;;;;;;;33.65;16.17;;;14.50;99.90;;;;;;4196418;28;20104;-80
2023/09/27 06:36:11;;;;;;;26.77;16.15;;;14.50;99.90;;;;;;4214282;28;20087;-79
2023/09/27 06:38:13;;;;;;;36.03;16.20;;;14.50;99.90;;;;;;4212859;28;20128;-79
2023/09/27 06:40:17;;;;;;;29.58;15.95;;;14.50;99.90;;;;;;4195873;28;20037;-79
2023/09/27 06:42:19;;;;;;;33.95;17.30;;;14.40;99.90;;;;;;4214062;28;20048;-79
2023/09/27 06:44:19;;;;;;;27.67;17.23;;;14.40;99.90;;;;;;4183213;28;20124;-79
2023/09/27 06:46:21;;;;;;;28.73;17.30;;;14.40;99.90;;;;;;4222521;28;20039;-81
2023/09/27 06:48:23;;;;;;;24.63;16.75;;;14.40;99.90;;;;;;4231401;28;20104;-80
2023/09/27 06:50:24;;;;;;;28.27;17.58;;;14.40;99.90;;;;;;4230429;28;20066;-80
2023/09/27 06:52:25;;;;;;;30.83;16.70;;;14.40;99.90;;;;;;4222151;28;20040;-80
2023/09/27 06:54:26;;;;;;;26.00;16.65;;;14.50;99.90;;;;;;4225053;28;20035;-79
2023/09/27 06:56:27;;;;;;;27.75;16.67;;;14.50;99.90;;;;;;4230335;28;20048;-80
2023/09/27 06:58:28;;;;;;;27.25;17.10;;;14.50;99.90;;;;;;4229995;28;20126;-80
2023/09/27 07:00:28;;;;;;;24.30;16.52;;;14.60;99.90;;;;;;4212702;28;20036;-81
2023/09/27 07:02:29;;;;;;;30.17;18.45;;;14.70;99.90;;;;;;4209776;28;20036;-81
2023/09/27 07:04:30;;;;;;;28.50;17.50;;;14.70;99.90;;;;;;4230234;28;20575;-81
2023/09/27 07:06:31;;;;;;;27.02;15.85;;;14.80;99.90;;;;;;4212393;28;20043;-81
2023/09/27 07:08:35;;;;;;;29.55;17.20;;;14.60;99.90;;;;;;4232202;28;20074;-81
2023/09/27 07:10:36;;;;;;;30.05;17.23;;;14.90;99.90;;;;;;4208640;28;20032;-81
2023/09/27 07:12:37;;;;;;;30.80;18.95;;;14.90;99.90;;;;;;4235264;28;20106;-79
2023/09/27 07:14:38;;;;;;;32.58;17.95;;;15.00;99.90;;;;;;4216077;28;20048;-80
2023/09/27 07:16:39;;;;;;;28.25;17.17;;;15.00;99.90;;;;;;4233702;28;20039;-79
2023/09/27 07:18:40;;;;;;;27.90;16.77;;;15.10;99.90;;;;;;4234528;28;20100;-80
2023/09/27 07:20:41;;;;;;;30.70;18.13;;;15.20;99.90;;;;;;4233988;28;20036;-80
2023/09/27 07:22:42;;;;;;;28.23;17.63;;;15.30;99.90;;;;;;4233885;28;20112;-79
2023/09/27 07:24:43;;;;;;;30.42;17.52;;;15.40;99.90;;;;;;4234008;28;20502;-80
2023/09/27 07:26:45;;;;;;;31.30;17.92;;;15.40;99.90;;;;;;4228946;28;20080;-79
2023/09/27 07:28:46;;;;;;;27.92;17.73;;;15.60;99.90;;;;;;4234372;27;20039;-80
2023/09/27 07:30:47;;;;;;;30.70;17.75;;;14.70;99.90;;;;;;4233910;28;20046;-80
2023/09/27 07:32:48;;;;;;;27.70;17.52;;;15.80;99.90;;;;;;4215197;28;20044;-80
2023/09/27 07:34:48;;;;;;;28.58;17.35;;;15.90;99.90;;;;;;4233560;28;20449;-80
2023/09/27 07:36:52;;;;;;;28.67;17.80;;;15.90;99.90;;;;;;4233016;28;20095;-80
2023/09/27 07:38:57;;;;;;;34.70;18.42;;;16.00;99.90;;;;;;4233593;28;20039;-80
2023/09/27 07:40:58;;;;;;;29.90;17.05;;;16.10;99.90;;;;;;4233619;28;20047;-80
2023/09/27 07:42:59;;;;;;;31.33;18.92;;;16.00;99.90;;;;;;4233609;28;20062;-80
2023/09/27 07:45:00;;;;;;;34.33;17.90;;;16.00;99.90;;;;;;4233565;28;20073;-80
2023/09/27 07:47:01;;;;;;;30.17;16.92;;;16.10;99.90;;;;;;4233050;28;20043;-80
2023/09/27 07:49:03;;;;;;;26.13;16.98;;;16.10;99.90;;;;;;4233602;28;20050;-80
2023/09/27 07:51:11;;;;;;;29.90;16.13;;;16.20;99.90;;;;;;4233249;28;20051;-80
2023/09/27 07:53:12;;;;;;;25.88;16.70;;;16.40;99.90;;;;;;4233196;28;20157;-79
2023/09/27 07:55:14;;;;;;;30.70;16.42;;;16.60;99.90;;;;;;4236018;27;20112;-80
2023/09/27 07:57:15;;;;;;;28.92;17.00;;;16.70;99.90;;;;;;4232866;28;20092;-80
2023/09/27 07:59:16;;;;;;;24.67;15.60;;;16.80;99.90;;;;;;4236121;28;20379;-80
2023/09/27 08:01:20;;;;;;;26.50;17.15;;;17.00;99.90;;;;;;4213372;28;20048;-80
2023/09/27 08:03:21;;;;;;;27.08;16.17;;;17.30;99.90;;;;;;4203274;28;20043;-80
2023/09/27 08:05:22;;;;;;;23.17;15.38;;;17.80;99.90;;;;;;4235246;28;20039;-80
2023/09/27 08:07:23;;;;;;;26.00;15.68;;;18.20;99.90;;;;;;4233573;28;20102;-81
2023/09/27 08:09:24;;;;;;;25.15;15.45;;;18.20;99.90;;;;;;4234280;28;20118;-81
2023/09/27 08:11:27;;;;;;;25.45;15.15;;;18.60;99.90;;;;;;4235747;28;20252;-79
2023/09/27 08:13:30;;;;;;;27.75;15.38;;;19.00;99.90;;;;;;4234539;28;20035;-79
2023/09/27 08:15:30;;;;;;;24.65;14.85;;;19.40;99.90;;;;;;4233199;28;20108;-79
2023/09/27 08:17:32;;;;;;;23.20;14.35;;;19.90;99.90;;;;;;4233814;28;20047;-80
2023/09/27 08:19:33;;;;;;;24.48;14.82;;;20.20;99.90;;;;;;4215248;28;20166;-80
2023/09/27 08:21:34;;;;;;;21.25;13.77;;;20.50;99.90;;;;;;4232060;28;20051;-80
2023/09/27 08:23:35;;;;;;;22.90;14.27;;;20.80;99.90;;;;;;4234173;27;20072;-80
2023/09/27 08:25:37;;;;;;;24.27;14.80;;;21.10;99.90;;;;;;4237270;27;20036;-80
2023/09/27 08:27:37;;;;;;;21.17;11.82;;;21.30;99.90;;;;;;4232896;28;20127;-81
2023/09/27 08:29:38;;;;;;;20.23;12.77;;;21.50;99.90;;;;;;4232445;28;20027;-80
2023/09/27 08:31:40;;;;;;;21.48;12.15;;;21.60;99.90;;;;;;4214491;28;20040;-80
2023/09/27 08:33:41;;;;;;;19.60;12.68;;;21.60;99.90;;;;;;4233223;28;20047;-80
2023/09/27 08:35:42;;;;;;;28.73;12.98;;;21.60;99.90;;;;;;4233161;28;20479;-81
2023/09/27 08:37:42;;;;;;;21.67;12.68;;;21.40;99.90;;;;;;4219418;28;20054;-80
2023/09/27 08:39:43;;;;;;;16.40;11.32;;;21.40;99.90;;;;;;4229590;28;20039;-80
2023/09/27 08:41:44;;;;;;;20.27;12.40;;;21.50;99.90;;;;;;4232969;28;20046;-80
2023/09/27 08:43:45;;;;;;;20.05;11.85;;;21.80;99.90;;;;;;4232175;28;20035;-80
2023/09/27 08:45:47;;;;;;;19.55;11.40;;;21.60;99.90;;;;;;4216736;28;20502;-80
2023/09/27 08:47:49;;;;;;;20.95;12.02;;;21.70;99.90;;;;;;4233058;28;20043;-80
2023/09/27 08:49:51;;;;;;;18.00;11.38;;;22.00;99.90;;;;;;4232455;28;20476;-80
2023/09/27 08:51:52;;;;;;;17.08;10.40;;;22.10;99.90;;;;;;4215800;28;20075;-80
2023/09/27 08:53:54;;;;;;;19.02;11.02;;;22.10;99.90;;;;;;4216816;28;20051;-80
2023/09/27 08:55:55;;;;;;;22.73;12.25;;;21.80;99.90;;;;;;4216782;28;20460;-79
2023/09/27 08:57:56;;;;;;;22.58;12.18;;;22.10;99.90;;;;;;4215845;28;20381;-80
2023/09/27 08:59:57;;;;;;;18.88;11.07;;;22.40;99.90;;;;;;4215460;28;20043;-80
2023/09/27 09:01:59;;;;;;;17.63;11.30;;;22.80;99.90;;;;;;4215556;28;20039;-79
2023/09/27 09:04:00;;;;;;;19.50;11.38;;;23.30;99.90;;;;;;4215817;28;20511;-80
2023/09/27 09:06:04;;;;;;;17.30;10.32;;;24.00;99.90;;;;;;4215589;28;20048;-80
2023/09/27 09:08:06;;;;;;;21.75;10.13;;;24.10;99.90;;;;;;4215775;28;20044;-80
2023/09/27 09:10:16;;;;;;;15.52;9.73;;;24.00;99.90;;;;;;4215094;28;20082;-80
2023/09/27 09:12:17;;;;;;;18.65;9.90;;;23.70;99.90;;;;;;4200014;28;20044;-79
2023/09/27 09:14:21;;;;;;;18.75;10.57;;;23.40;99.90;;;;;;4215356;28;20051;-80
2023/09/27 09:16:23;;;;;;;17.80;10.00;;;23.30;99.90;;;;;;4230183;28;20131;-80
2023/09/27 09:18:36;;;;;;;17.35;10.32;;;23.60;99.90;;;;;;4215036;28;20477;-81
2023/09/27 09:20:54;;;;;;;17.88;10.85;;;24.00;99.90;;;;;;4215116;28;20400;-80
2023/09/27 09:22:57;;;;;;;16.80;8.35;;;24.20;99.90;;;;;;4213923;28;20039;-81
2023/09/27 09:24:59;;;;;;;19.15;8.85;;;24.70;99.90;;;;;;4214731;28;20066;-80
2023/09/27 09:27:07;;;;;;;14.98;7.72;;;24.80;99.90;;;;;;4214684;28;20040;-80
2023/09/27 09:29:08;;;;;;;15.40;6.63;;;24.40;99.90;;;;;;4214959;28;20098;-80
2023/09/27 09:31:21;;;;;;;14.32;7.13;;;23.70;99.90;;;;;;4215158;28;20456;-80
2023/09/27 09:33:28;;;;;;;15.57;6.30;;;23.80;99.90;;;;;;4229811;28;20720;-80
2023/09/27 09:35:30;;;;;;;16.88;7.30;;;24.00;99.90;;;;;;4213985;28;20048;-80
2023/09/27 09:37:33;;;;;;;16.27;7.22;;;24.10;99.90;;;;;;4215112;28;20494;-80
2023/09/27 09:39:34;;;;;;;15.00;5.90;;;23.90;99.90;;;;;;4215182;28;20115;-80
2023/09/27 09:41:43;;;;;;;12.00;7.32;;;24.00;99.90;;;;;;4214326;28;20055;-80
2023/09/27 09:43:44;;;;;;;9.93;6.38;;;24.10;99.90;;;;;;4214692;28;20098;-80
2023/09/27 09:45:45;;;;;;;12.98;7.03;;;24.80;99.90;;;;;;4215211;28;20040;-80
2023/09/27 09:47:46;;;;;;;17.90;6.45;;;24.60;99.90;;;;;;4214208;28;20165;-80
2023/09/27 09:49:47;;;;;;;14.48;6.38;;;24.50;99.90;;;;;;4215644;28;20128;-80
2023/09/27 09:51:49;;;;;;;13.75;5.75;;;24.30;99.90;;;;;;4231869;28;20040;-80
2023/09/27 09:53:53;;;;;;;12.48;5.97;;;24.20;99.90;;;;;;4231628;28;20090;-80
2023/09/27 09:55:57;;;;;;;9.52;5.53;;;24.30;99.90;;;;;;4231872;28;20051;-80
2023/09/27 09:58:22;;;;;;;11.18;5.78;;;24.40;99.90;;;;;;4231160;28;20088;-80
2023/09/27 10:00:25;;;;;;;11.40;4.65;;;24.60;99.90;;;;;;4231457;28;20044;-80
2023/09/27 10:02:35;;;;;;;12.68;4.70;;;24.10;99.90;;;;;;4231391;28;20123;-80
2023/09/27 10:04:37;;;;;;;12.27;4.40;;;23.80;99.90;;;;;;4231179;28;20083;-81
2023/09/27 10:06:39;;;;;;;10.77;4.40;;;23.40;99.90;;;;;;4231289;28;20039;-81
2023/09/27 10:08:40;;;;;;;18.95;5.75;;;23.10;99.90;;;;;;4201193;28;20431;-81
2023/09/27 10:10:41;;;;;;;11.93;4.63;;;22.80;99.90;;;;;;4225732;27;20055;-82
2023/09/27 10:12:44;;;;;;;11.88;4.38;;;22.70;99.90;;;;;;4213367;28;20118;-81
2023/09/27 10:14:46;;;;;;;10.52;4.32;;;22.60;99.90;;;;;;4231325;28;20391;-81
2023/09/27 10:16:48;;;;;;;9.60;4.65;;;22.60;99.90;;;;;;4231003;28;20093;-82
2023/09/27 10:18:49;;;;;;;10.85;4.00;;;22.60;99.90;;;;;;4231210;28;20458;-81
2023/09/27 10:21:12;;;;;;;11.10;4.40;;;22.70;99.90;;;;;;4231342;28;20031;-81